createdAt,value
2022-10-26T00:01:10.001Z,13.20
2022-10-26T00:03:40.210Z,15.70
2022-10-26T00:06:10.742Z,10.50
2022-10-26T00:08:38.152Z,14.40
2022-10-26T00:11:05.882Z,13.00
2022-10-26T00:13:33.535Z,12.20
2022-10-26T00:21:07.822Z,15.20
2022-10-26T00:23:34.846Z,10.50
2022-10-26T00:26:03.250Z,12.90
2022-10-26T00:28:30.470Z,10.90
2022-10-26T00:31:12.351Z,11.90
2022-10-26T00:33:39.331Z,16.20
2022-10-26T00:36:08.778Z,9.60
2022-10-26T00:38:35.911Z,9.80
2022-10-26T00:41:03.240Z,12.10
2022-10-26T00:43:29.934Z,12.00
2022-10-26T00:45:58.683Z,13.70
2022-10-26T00:48:29.525Z,12.30
2022-10-26T00:51:00.373Z,10.90
2022-10-26T00:53:28.628Z,12.80
2022-10-26T00:55:56.144Z,9.70
2022-10-26T00:58:25.523Z,10.50
2022-10-26T01:00:52.732Z,12.20
2022-10-26T01:03:20.403Z,9.40
2022-10-26T01:05:48.996Z,9.50
2022-10-26T01:08:17.658Z,10.40
2022-10-26T01:10:44.947Z,8.80
2022-10-26T01:13:13.831Z,13.50
2022-10-26T01:16:21.287Z,8.60
2022-10-26T01:19:38.620Z,11.10
2022-10-26T01:22:21.852Z,9.20
2022-10-26T01:25:02.520Z,10.90
2022-10-26T01:27:41.044Z,12.40
2022-10-26T01:30:37.308Z,9.80
2022-10-26T01:33:13.329Z,15.80
2022-10-26T01:35:53.442Z,13.50
2022-10-26T01:38:24.207Z,14.50
2022-10-26T01:41:17.810Z,12.70
2022-10-26T01:43:58.110Z,15.90
2022-10-26T01:46:28.609Z,9.10
2022-10-26T01:49:01.160Z,12.60
2022-10-26T01:51:29.618Z,14.90
2022-10-26T01:53:57.754Z,9.80
2022-10-26T01:56:31.670Z,11.50
2022-10-26T01:59:21.974Z,11.20
2022-10-26T02:01:50.369Z,13.80
2022-10-26T02:04:41.352Z,12.80
2022-10-26T02:07:29.973Z,12.20
2022-10-26T02:10:05.776Z,15.90
2022-10-26T02:12:59.265Z,11.60
2022-10-26T02:15:45.687Z,12.40
2022-10-26T02:18:30.486Z,12.10
2022-10-26T02:21:03.569Z,12.50
2022-10-26T02:23:34.304Z,13.40
2022-10-26T02:26:05.004Z,12.90
2022-10-26T02:28:38.508Z,14.80
2022-10-26T02:31:07.094Z,9.60
2022-10-26T02:33:39.417Z,13.90
2022-10-26T02:38:38.841Z,14.80
2022-10-26T02:41:07.132Z,11.40
2022-10-26T02:43:41.467Z,14.00
2022-10-26T02:46:13.178Z,10.20
2022-10-26T02:48:40.442Z,15.80
2022-10-26T02:51:41.763Z,13.70
2022-10-26T02:54:46.724Z,15.70
2022-10-26T02:57:23.059Z,12.70
2022-10-26T02:59:50.583Z,12.00
2022-10-26T03:02:19.739Z,16.20
2022-10-26T03:04:49.676Z,12.20
2022-10-26T03:07:23.814Z,15.30
2022-10-26T03:09:50.939Z,11.80
2022-10-26T03:12:17.774Z,12.20
2022-10-26T03:14:44.935Z,13.80
2022-10-26T03:17:11.756Z,16.70
2022-10-26T03:19:38.706Z,10.30
2022-10-26T03:22:05.498Z,13.80
2022-10-26T03:24:32.403Z,15.20
2022-10-26T03:27:02.043Z,16.30
2022-10-26T03:29:29.425Z,16.30
2022-10-26T03:31:56.309Z,15.50
2022-10-26T03:34:23.141Z,13.00
2022-10-26T03:36:49.855Z,15.00
2022-10-26T03:39:17.034Z,14.40
2022-10-26T03:41:44.148Z,12.00
2022-10-26T03:44:11.102Z,14.40
2022-10-26T03:46:37.931Z,15.70
2022-10-26T03:49:04.838Z,18.50
2022-10-26T03:51:31.618Z,12.60
2022-10-26T03:53:58.351Z,12.90
2022-10-26T03:56:25.434Z,13.30
2022-10-26T03:58:52.380Z,16.30
2022-10-26T04:01:19.278Z,17.10
2022-10-26T04:03:46.348Z,20.20
2022-10-26T04:06:13.363Z,15.10
2022-10-26T04:08:40.122Z,15.50
2022-10-26T04:11:06.891Z,19.50
2022-10-26T04:13:33.794Z,15.00
2022-10-26T04:16:00.676Z,18.90
2022-10-26T04:18:27.504Z,15.30
2022-10-26T04:20:54.276Z,17.50
2022-10-26T04:23:21.585Z,17.90
2022-10-26T04:25:48.462Z,13.60
2022-10-26T04:28:15.281Z,14.60
2022-10-26T04:30:42.185Z,11.70
2022-10-26T04:33:09.552Z,13.60
2022-10-26T04:35:36.344Z,15.50
2022-10-26T04:38:05.663Z,12.70
2022-10-26T04:40:34.123Z,15.60
2022-10-26T04:43:01.241Z,12.90
2022-10-26T04:45:30.131Z,12.40
2022-10-26T04:48:05.113Z,13.60
2022-10-26T04:50:32.512Z,16.70
2022-10-26T04:53:00.059Z,16.40
2022-10-26T04:55:26.897Z,15.00
2022-10-26T04:57:55.971Z,14.70
2022-10-26T05:00:26.091Z,10.70
2022-10-26T05:03:07.843Z,12.80
2022-10-26T05:05:36.693Z,16.40
2022-10-26T05:08:03.816Z,14.40
2022-10-26T05:10:30.766Z,13.90
2022-10-26T05:12:59.563Z,14.10
2022-10-26T05:15:27.813Z,15.90
2022-10-26T05:18:02.855Z,11.20
2022-10-26T05:20:31.854Z,13.70
2022-10-26T05:23:01.155Z,14.60
2022-10-26T05:25:31.091Z,13.70
2022-10-26T05:28:03.542Z,14.30
2022-10-26T05:30:31.468Z,14.10
2022-10-26T05:33:02.464Z,13.30
2022-10-26T05:35:29.710Z,14.40
2022-10-26T05:37:56.710Z,14.00
2022-10-26T05:40:24.054Z,15.10
2022-10-26T05:42:51.840Z,15.90
2022-10-26T05:45:18.956Z,16.80
2022-10-26T05:47:46.013Z,13.40
2022-10-26T05:50:13.642Z,13.30
2022-10-26T05:52:42.533Z,21.40
2022-10-26T05:55:10.945Z,12.40
2022-10-26T05:57:38.262Z,13.80
2022-10-26T06:00:14.602Z,16.80
2022-10-26T06:02:49.271Z,15.50
2022-10-26T06:05:23.285Z,15.30
2022-10-26T06:07:50.740Z,11.70
2022-10-26T06:10:18.486Z,17.50
2022-10-26T06:33:47.063Z,15.00
2022-10-26T06:36:23.321Z,13.30
2022-10-26T06:38:56.901Z,13.10
2022-10-26T06:41:26.393Z,16.40
2022-10-26T06:43:54.805Z,17.20
2022-10-26T06:46:44.990Z,15.20
2022-10-26T06:49:28.460Z,14.50
2022-10-26T06:52:10.269Z,16.40
2022-10-26T06:54:49.666Z,15.40
2022-10-26T06:57:20.414Z,15.70
2022-10-26T06:59:53.195Z,16.40
2022-10-26T07:02:22.030Z,13.70
2022-10-26T07:04:50.425Z,11.40
2022-10-26T07:07:21.313Z,12.40
2022-10-26T07:09:50.407Z,11.20
2022-10-26T07:12:18.923Z,15.60
2022-10-26T07:14:47.111Z,13.60
2022-10-26T07:17:15.325Z,14.60
2022-10-26T07:19:44.942Z,18.10
2022-10-26T07:22:13.319Z,13.50
2022-10-26T07:24:41.434Z,17.70
2022-10-26T07:27:09.623Z,14.00
2022-10-26T07:29:37.995Z,10.60
2022-10-26T07:32:06.400Z,13.40
2022-10-26T07:34:34.673Z,13.00
2022-10-26T07:37:03.476Z,12.20
2022-10-26T07:39:32.957Z,14.90
2022-10-26T07:42:01.272Z,13.50
2022-10-26T07:44:29.532Z,11.90
2022-10-26T07:46:58.408Z,16.30
2022-10-26T07:49:27.923Z,11.90
2022-10-26T07:51:56.394Z,13.30
2022-10-26T07:54:24.794Z,12.40
2022-10-26T07:56:53.217Z,8.90
2022-10-26T07:59:21.381Z,13.30
2022-10-26T08:01:49.711Z,12.50
2022-10-26T08:04:18.042Z,12.90
2022-10-26T08:06:47.439Z,18.20
2022-10-26T08:09:15.689Z,10.40
2022-10-26T08:11:43.996Z,9.40
2022-10-26T08:14:12.894Z,13.30
2022-10-26T08:16:41.166Z,11.70
2022-10-26T08:19:09.824Z,5.50
2022-10-26T08:21:40.918Z,14.60
2022-10-26T08:24:09.319Z,13.40
2022-10-26T08:26:37.758Z,9.70
2022-10-26T08:29:05.922Z,8.80
2022-10-26T08:31:34.193Z,12.80
2022-10-26T08:34:04.164Z,10.20
2022-10-26T08:36:32.461Z,13.40
2022-10-26T08:39:04.086Z,13.30
2022-10-26T08:41:47.833Z,9.20
2022-10-26T08:44:26.166Z,11.80
2022-10-26T08:47:11.353Z,9.50
2022-10-26T08:49:47.385Z,7.10
2022-10-26T08:52:22.799Z,9.90
2022-10-26T08:54:54.643Z,8.40
2022-10-26T08:57:38.759Z,8.80
2022-10-26T09:00:17.579Z,14.60
2022-10-26T09:02:49.990Z,10.30
2022-10-26T09:05:23.700Z,12.10
2022-10-26T09:08:07.059Z,7.40
2022-10-26T09:10:41.467Z,9.50
2022-10-26T09:13:42.860Z,11.60
2022-10-26T09:16:23.507Z,8.30
2022-10-26T09:19:35.570Z,8.30
2022-10-26T09:22:31.861Z,6.50
2022-10-26T09:25:12.772Z,12.40
2022-10-26T09:27:47.823Z,10.60
2022-10-26T09:30:20.579Z,11.00
2022-10-26T09:32:52.763Z,11.80
2022-10-26T09:35:31.616Z,7.90
2022-10-26T09:38:09.970Z,11.50
2022-10-26T09:40:47.641Z,11.40
2022-10-26T09:43:30.647Z,15.50
2022-10-26T09:45:58.987Z,11.00
2022-10-26T09:48:41.584Z,8.70
2022-10-26T09:51:11.321Z,8.10
2022-10-26T09:53:39.613Z,8.40
2022-10-26T09:56:11.877Z,7.50
2022-10-26T09:59:05.368Z,6.30
2022-10-26T10:01:38.494Z,7.90
2022-10-26T10:04:13.632Z,9.30
2022-10-26T10:06:43.379Z,6.90
2022-10-26T10:09:15.960Z,6.80
2022-10-26T10:11:58.004Z,8.90
2022-10-26T10:14:39.664Z,7.20
2022-10-26T10:17:23.272Z,4.30
2022-10-26T10:19:52.739Z,10.60
2022-10-26T10:22:25.578Z,7.50
2022-10-26T10:25:00.113Z,8.50
2022-10-26T10:27:30.314Z,9.50
2022-10-26T10:30:07.206Z,7.70
2022-10-26T10:32:38.958Z,9.90
2022-10-26T10:35:24.653Z,9.40
2022-10-26T10:37:53.195Z,10.70
2022-10-26T10:40:24.708Z,6.70
2022-10-26T10:43:03.269Z,9.90
2022-10-26T10:45:32.761Z,8.00
2022-10-26T10:48:13.340Z,6.20
2022-10-26T10:51:01.137Z,5.90
2022-10-26T10:53:44.694Z,5.60
2022-10-26T10:56:28.383Z,5.90
2022-10-26T10:59:19.241Z,4.40
2022-10-26T11:02:29.489Z,8.30
2022-10-26T11:05:13.337Z,7.60
2022-10-26T11:07:52.925Z,4.30
2022-10-26T11:10:26.879Z,8.70
2022-10-26T11:12:59.873Z,4.90
2022-10-26T11:15:32.870Z,6.90
2022-10-26T11:18:13.870Z,6.00
2022-10-26T11:21:38.177Z,6.30
2022-10-26T11:24:22.637Z,6.80
2022-10-26T11:26:54.341Z,7.40
2022-10-26T11:29:48.643Z,7.30
2022-10-26T11:32:22.869Z,9.00
2022-10-26T11:35:00.736Z,8.70
2022-10-26T11:37:51.450Z,5.50
2022-10-26T11:40:44.844Z,7.80
2022-10-26T11:43:31.312Z,10.20
2022-10-26T11:46:24.418Z,6.80
2022-10-26T11:49:07.300Z,6.60
2022-10-26T11:51:41.696Z,7.50
2022-10-26T11:54:26.142Z,8.50
2022-10-26T11:56:57.116Z,6.20
2022-10-26T11:59:37.968Z,6.20
2022-10-26T12:02:15.498Z,6.70
2022-10-26T12:04:47.729Z,8.90
2022-10-26T12:07:26.683Z,5.80
2022-10-26T12:09:57.826Z,4.90
2022-10-26T12:12:37.449Z,8.00
2022-10-26T12:15:35.546Z,6.50
2022-10-26T12:18:43.202Z,8.10
2022-10-26T12:21:15.703Z,7.20
2022-10-26T12:23:59.514Z,9.20
2022-10-26T12:26:27.704Z,6.30
2022-10-26T12:29:02.545Z,6.20
2022-10-26T12:31:37.043Z,6.70
2022-10-26T12:34:12.371Z,3.60
2022-10-26T12:36:56.628Z,6.00
2022-10-26T12:39:35.757Z,6.70
2022-10-26T12:42:10.012Z,9.00
2022-10-26T12:44:41.468Z,8.60
2022-10-26T12:47:30.522Z,4.50
2022-10-26T12:50:05.765Z,7.50
2022-10-26T12:52:45.602Z,9.20
2022-10-26T12:55:20.349Z,7.30
2022-10-26T12:58:07.684Z,4.70
2022-10-26T13:00:42.732Z,7.20
2022-10-26T13:03:39.623Z,5.90
2022-10-26T13:06:17.442Z,5.60
2022-10-26T13:08:49.303Z,5.90
2022-10-26T13:11:23.316Z,7.70
2022-10-26T13:13:57.419Z,4.90
2022-10-26T13:16:28.335Z,4.00
2022-10-26T13:18:57.436Z,5.30
2022-10-26T13:21:26.841Z,4.10
2022-10-26T13:23:55.863Z,3.50
2022-10-26T13:26:26.569Z,5.10
2022-10-26T13:28:57.439Z,5.90
2022-10-26T13:31:28.771Z,6.10
2022-10-26T13:34:01.668Z,5.80
2022-10-26T13:36:45.671Z,3.70
2022-10-26T13:39:20.725Z,6.50
2022-10-26T13:41:52.583Z,6.20
2022-10-26T13:44:27.826Z,4.80
2022-10-26T13:47:02.477Z,3.60
2022-10-26T13:49:39.402Z,5.30
2022-10-26T13:52:19.124Z,7.60
2022-10-26T13:54:59.256Z,6.40
2022-10-26T13:57:43.867Z,7.70
2022-10-26T14:00:23.829Z,5.70
2022-10-26T14:02:52.357Z,5.70
2022-10-26T14:05:22.223Z,5.10
2022-10-26T14:07:56.858Z,6.60
2022-10-26T14:10:38.918Z,6.90
2022-10-26T14:13:08.920Z,9.40
2022-10-26T14:15:37.248Z,7.70
2022-10-26T14:18:05.485Z,9.90
2022-10-26T14:20:33.909Z,5.10
2022-10-26T14:23:02.107Z,7.20
2022-10-26T14:25:42.400Z,5.50
2022-10-26T14:28:28.910Z,10.10
2022-10-26T14:31:25.464Z,7.90
2022-10-26T14:33:54.925Z,7.50
2022-10-26T14:36:34.311Z,7.80
2022-10-26T14:39:07.932Z,11.40
2022-10-26T14:41:36.584Z,11.40
2022-10-26T14:44:04.971Z,11.10
2022-10-26T14:46:35.848Z,9.80
2022-10-26T14:49:04.915Z,7.40
2022-10-26T14:51:36.437Z,9.70
2022-10-26T14:54:05.043Z,9.50
2022-10-26T14:56:36.548Z,8.40
2022-10-26T14:59:24.571Z,8.70
2022-10-26T15:02:02.437Z,11.70
2022-10-26T15:04:36.660Z,7.40
2022-10-26T15:07:18.811Z,6.90
2022-10-26T15:09:49.366Z,7.80
2022-10-26T15:12:23.611Z,11.30
2022-10-26T15:14:52.588Z,9.00
2022-10-26T15:17:24.645Z,10.10
2022-10-26T15:19:53.954Z,8.50
2022-10-26T15:22:31.147Z,10.60
2022-10-26T15:25:04.745Z,6.90
2022-10-26T15:27:33.156Z,10.90
2022-10-26T15:30:37.242Z,8.40
2022-10-26T15:33:22.234Z,12.30
2022-10-26T15:35:50.706Z,15.40
2022-10-26T15:38:19.032Z,12.50
2022-10-26T15:40:47.085Z,18.70
2022-10-26T15:43:15.451Z,15.40
2022-10-26T15:45:52.171Z,15.80
2022-10-26T15:48:29.315Z,15.40
2022-10-26T15:50:58.394Z,15.90
2022-10-26T15:53:27.674Z,15.80
2022-10-26T15:55:58.916Z,27.10
2022-10-26T15:58:29.833Z,47.50
2022-10-26T16:00:57.933Z,18.80
2022-10-26T16:03:27.390Z,14.70
2022-10-26T16:05:58.790Z,16.80
2022-10-26T16:08:30.120Z,10.50
2022-10-26T16:10:58.826Z,13.20
2022-10-26T16:13:26.945Z,11.50
2022-10-26T16:15:55.312Z,17.10
2022-10-26T16:18:23.662Z,9.30
2022-10-26T16:20:51.777Z,19.00
2022-10-26T16:23:19.899Z,16.10
2022-10-26T16:25:48.051Z,12.70
2022-10-26T16:28:17.351Z,15.30
2022-10-26T16:30:45.842Z,11.50
2022-10-26T16:33:14.252Z,11.80
2022-10-26T16:35:42.356Z,14.00
2022-10-26T16:38:10.597Z,10.50
2022-10-26T16:40:42.746Z,14.90
2022-10-26T16:43:11.136Z,13.40
2022-10-26T16:45:41.848Z,16.40
2022-10-26T16:48:15.359Z,19.00
2022-10-26T16:50:43.610Z,16.60
2022-10-26T16:53:12.000Z,14.00
2022-10-26T16:55:40.344Z,14.20
2022-10-26T16:58:08.584Z,16.90
2022-10-26T17:00:37.832Z,13.70
2022-10-26T17:03:06.024Z,11.90
2022-10-26T17:05:34.381Z,14.40
2022-10-26T17:08:02.600Z,14.20
2022-10-26T17:10:30.716Z,12.60
2022-10-26T17:12:58.990Z,15.50
2022-10-26T17:15:29.020Z,13.30
2022-10-26T17:17:57.467Z,12.40
2022-10-26T17:20:25.900Z,12.70
2022-10-26T17:22:55.380Z,14.20
2022-10-26T17:25:23.581Z,15.90
2022-10-26T17:27:51.753Z,11.70
2022-10-26T17:30:19.911Z,14.10
2022-10-26T17:32:48.461Z,13.30
2022-10-26T17:35:17.035Z,16.70
2022-10-26T17:37:45.430Z,15.00
2022-10-26T17:40:13.953Z,19.20
2022-10-26T17:42:42.127Z,14.00
2022-10-26T17:45:10.677Z,15.30
2022-10-26T17:47:38.952Z,16.20
2022-10-26T17:50:08.135Z,16.80
2022-10-26T17:52:36.360Z,18.00
2022-10-26T17:55:05.072Z,18.30
2022-10-26T17:57:34.157Z,23.50
2022-10-26T18:00:03.924Z,20.60
2022-10-26T18:02:40.906Z,21.20
2022-10-26T18:05:09.634Z,23.20
2022-10-26T18:07:37.869Z,23.50
2022-10-26T18:10:13.822Z,22.50
2022-10-26T18:12:54.768Z,21.70
2022-10-26T18:15:24.029Z,22.40
2022-10-26T18:17:55.548Z,19.70
2022-10-26T18:20:28.330Z,22.60
2022-10-26T18:22:57.136Z,29.20
2022-10-26T18:25:26.209Z,25.40
2022-10-26T18:27:55.913Z,25.90
2022-10-26T18:30:24.834Z,24.10
2022-10-26T18:32:53.788Z,25.10
2022-10-26T18:35:23.615Z,23.60
2022-10-26T18:37:52.088Z,24.80
2022-10-26T18:40:20.501Z,24.50
2022-10-26T18:42:49.080Z,25.90
2022-10-26T18:45:17.537Z,24.80
2022-10-26T18:47:45.678Z,26.00
2022-10-26T18:50:13.953Z,24.90
2022-10-26T18:52:42.179Z,28.40
2022-10-26T18:55:10.334Z,27.10
2022-10-26T18:57:39.946Z,28.90
2022-10-26T19:00:08.884Z,24.20
2022-10-26T19:02:37.234Z,29.90
2022-10-26T19:05:06.412Z,24.50
2022-10-26T19:07:34.526Z,22.00
2022-10-26T19:10:02.968Z,26.40
2022-10-26T19:12:31.680Z,25.80
2022-10-26T19:14:59.787Z,25.10
2022-10-26T19:17:28.178Z,27.70
2022-10-26T19:19:57.100Z,24.80
2022-10-26T19:22:25.190Z,28.50
2022-10-26T19:24:53.453Z,25.90
2022-10-26T19:27:22.136Z,22.10
2022-10-26T19:29:50.216Z,25.90
2022-10-26T19:32:18.383Z,24.70
2022-10-26T19:34:47.125Z,29.10
2022-10-26T19:37:15.384Z,25.70
2022-10-26T19:39:43.574Z,29.00
2022-10-26T19:42:11.876Z,25.70
2022-10-26T19:44:39.986Z,23.70
2022-10-26T19:47:08.241Z,26.20
2022-10-26T19:49:36.451Z,23.60
2022-10-26T19:52:04.900Z,24.30
2022-10-26T19:54:33.353Z,24.60
2022-10-26T19:57:01.850Z,23.90
2022-10-26T19:59:30.024Z,24.10
2022-10-26T20:02:00.381Z,26.50
2022-10-26T20:04:28.681Z,23.00
2022-10-26T20:06:56.844Z,22.50
2022-10-26T20:09:25.158Z,20.90
2022-10-26T20:11:53.552Z,21.90
2022-10-26T20:14:21.714Z,24.20
2022-10-26T20:16:49.857Z,25.00
2022-10-26T20:19:18.498Z,25.30
2022-10-26T20:21:46.848Z,24.90
2022-10-26T20:24:14.990Z,24.60
2022-10-26T20:26:43.169Z,20.80
2022-10-26T20:29:11.594Z,19.70
2022-10-26T20:31:39.830Z,20.40
2022-10-26T20:34:08.069Z,18.20
2022-10-26T20:36:36.268Z,22.10
2022-10-26T20:39:05.143Z,26.80
2022-10-26T20:41:33.725Z,26.60
2022-10-26T20:44:02.366Z,23.10
2022-10-26T20:46:30.947Z,26.10
2022-10-26T20:48:59.568Z,23.50
2022-10-26T20:52:02.732Z,27.00
2022-10-26T20:54:59.492Z,31.00
2022-10-26T20:57:30.932Z,24.50
2022-10-26T21:00:09.254Z,28.40
2022-10-26T21:02:37.989Z,31.20
2022-10-26T21:05:06.628Z,27.10
2022-10-26T21:07:34.783Z,26.10
2022-10-26T21:10:02.902Z,30.60
2022-10-26T21:12:31.120Z,24.50
2022-10-26T21:14:59.263Z,25.40
2022-10-26T21:17:27.635Z,34.70
2022-10-26T21:19:56.131Z,27.40
2022-10-26T21:22:24.424Z,27.10
2022-10-26T21:24:52.524Z,27.60
2022-10-26T21:27:20.634Z,27.40
2022-10-26T21:29:48.757Z,25.60
2022-10-26T21:32:16.905Z,28.10
2022-10-26T21:34:45.160Z,28.00
2022-10-26T21:37:13.421Z,27.30
2022-10-26T21:39:41.558Z,36.30
2022-10-26T21:42:09.713Z,28.90
2022-10-26T21:44:41.752Z,28.90
2022-10-26T21:47:11.442Z,29.60
2022-10-26T21:52:13.034Z,31.10
2022-10-26T21:54:41.488Z,26.90
2022-10-26T21:57:09.670Z,29.90
2022-10-26T21:59:37.774Z,26.50
2022-10-26T22:02:05.997Z,30.10
2022-10-26T22:04:34.390Z,29.40
2022-10-26T22:07:02.522Z,28.60
2022-10-26T22:09:30.823Z,28.50
2022-10-26T22:11:59.043Z,26.40
2022-10-26T22:14:27.129Z,23.10
2022-10-26T22:16:55.386Z,28.60
2022-10-26T22:19:23.549Z,26.10
2022-10-26T22:21:51.732Z,28.60
2022-10-26T22:24:20.047Z,34.30
2022-10-26T22:26:51.216Z,27.40
2022-10-26T22:29:19.450Z,31.80
2022-10-26T22:31:47.698Z,27.50
2022-10-26T22:34:16.685Z,27.50
2022-10-26T22:36:45.093Z,27.10
2022-10-26T22:39:13.823Z,28.90
2022-10-26T22:41:42.054Z,26.10
2022-10-26T22:44:10.476Z,26.40
2022-10-26T22:46:38.695Z,29.00
2022-10-26T22:49:06.810Z,25.70
2022-10-26T22:51:35.424Z,30.00
2022-10-26T22:54:05.285Z,27.20
2022-10-26T22:56:36.018Z,28.90
2022-10-26T22:59:05.945Z,26.90
2022-10-26T23:01:37.900Z,26.30
2022-10-26T23:04:06.088Z,27.70
2022-10-26T23:06:34.459Z,28.30
2022-10-26T23:09:02.794Z,31.70
2022-10-26T23:11:31.102Z,32.20
2022-10-26T23:14:01.006Z,33.80
2022-10-26T23:16:30.401Z,31.30
2022-10-26T23:18:59.914Z,30.50
2022-10-26T23:21:29.389Z,30.10
2022-10-26T23:23:58.209Z,28.60
2022-10-26T23:26:26.879Z,33.40
2022-10-26T23:28:55.102Z,28.90
2022-10-26T23:31:26.337Z,29.50
2022-10-26T23:33:56.405Z,33.00
2022-10-26T23:36:25.162Z,32.20
2022-10-26T23:38:53.459Z,31.20
2022-10-26T23:41:21.603Z,28.50
2022-10-26T23:43:49.988Z,29.00
2022-10-26T23:46:18.163Z,28.40
2022-10-26T23:48:46.343Z,25.60
2022-10-26T23:51:14.528Z,29.00
2022-10-26T23:53:42.799Z,28.90
2022-10-26T23:56:11.047Z,27.60
2022-10-26T23:58:39.401Z,26.90
